Thunderstorms From: 25-05-2018 23:09 Until: 26-05-2018 15:00 warning for: Thunderstorms Level: Yellow info button

Although rather usual in this region, locally or potentially dangerous phenomena are expected. (such as local winds, summer thunderstorms, rising streams or high waves) Be aware and pay attention to the latest weather updates, especially if you carry out activities exposed to weather or close to a stream or shoreline. 


Meteo18 Weather Cam more information Meteo18 Weather Cam


warning for Thunderstorms more information blitzortung!


Rain radar more information rain snow radar


Visit our other weather sites:

Template documentation
and downloads

And another site



Weather Underground History page Text

Daily Summary for April 22, 2017 Units:  English    Metric   Both
« Previous Day
Next Day »
Daily Weekly Monthly Yearly Custom
  High: Low: Average:
Temperature: TemperatureC °F 4.3 °F 11.5 °F
Dew Point: DewpointC °F -1.1 °F 3 °F
Humidity: Humidity % 44 % 57 %
Wind Speed: WindSpeedKMH mph 0.0 mph 5 mph
Wind Gust: WindSpeedGustKMH mph - -
Wind:- - SSE
Pressure: PressurehPa in 1024.3 in -
Precipitation: 0.0 in    
Historical Graphs
 
 
Tabular Data for April 22, 2017
Time Temperature Dew Point Pressure Wind Wind Speed Wind Gust Humidity Rainfall Rate (Hourly)
TemperatureC °F DewpointC °F PressurehPa in Calm     Humidity % HourlyPrecipMM in
00:02 9.4 °F 0.0 °F 1029.3 in NNW 1.6 mph 8.0 mph 52 % 0.0 in
00:07 9.3 °F -0.1 °F 1029.0 in NNW 3.2 mph 8.0 mph 52 % 0.0 in
00:12 9.3 °F -0.1 °F 1029.3 in North 3.2 mph 8.0 mph 52 % 0.0 in
00:17 9.3 °F -0.1 °F 1029.0 in North 4.8 mph 8.0 mph 52 % 0.0 in
00:22 9.1 °F 0.0 °F 1029.0 in North 1.6 mph 8.0 mph 53 % 0.0 in
00:27 8.9 °F -0.2 °F 1029.0 in North 1.6 mph 8.0 mph 53 % 0.0 in
00:32 8.8 °F -0.3 °F 1029.0 in Calm   8.0 mph 53 % 0.0 in
00:37 8.8 °F 0.0 °F 1029.0 in Calm   8.0 mph 54 % 0.0 in
00:42 8.7 °F -0.1 °F 1029.0 in Calm   4.8 mph 54 % 0.0 in
00:52 8.4 °F -0.1 °F 1029.0 in Calm   4.8 mph 55 % 0.0 in
01:02 7.6 °F -0.1 °F 1029.0 in WNW 1.6 mph 3.2 mph 58 % 0.0 in
01:12 7.8 °F -0.4 °F 1028.7 in NNW 1.6 mph 3.2 mph 56 % 0.0 in
01:17 7.8 °F -0.4 °F 1028.7 in NNW 1.6 mph 3.2 mph 56 % 0.0 in
01:22 7.8 °F -0.4 °F 1028.7 in Calm   3.2 mph 56 % 0.0 in
01:27 7.6 °F -0.4 °F 1028.7 in Calm   3.2 mph 57 % 0.0 in
01:32 7.2 °F -0.3 °F 1028.7 in Calm   3.2 mph 59 % 0.0 in
01:37 7.3 °F -0.4 °F 1028.7 in Calm     58 % 0.0 in
01:42 7.7 °F -0.5 °F 1028.7 in Calm     56 % 0.0 in
01:47 7.7 °F -0.5 °F 1028.7 in Calm     56 % 0.0 in
01:52 7.3 °F -0.2 °F 1028.7 in Calm     59 % 0.0 in
01:57 6.6 °F -0.4 °F 1028.7 in Calm     61 % 0.0 in
02:02 6.7 °F -0.5 °F 1028.7 in Calm     60 % 0.0 in
02:07 7.3 °F -0.7 °F 1028.7 in Calm     57 % 0.0 in
02:12 7.2 °F -0.8 °F 1028.7 in Calm     57 % 0.0 in
02:17 6.9 °F -0.8 °F 1028.7 in Calm     58 % 0.0 in
02:22 6.9 °F -0.8 °F 1028.7 in Calm     58 % 0.0 in
02:27 6.9 °F -0.8 °F 1028.3 in Calm     58 % 0.0 in
02:32 6.8 °F -0.9 °F 1028.3 in Calm     58 % 0.0 in
02:37 6.6 °F -0.8 °F 1028.3 in Calm     59 % 0.0 in
02:42 6.7 °F -1.0 °F 1028.3 in NNW 1.6 mph   58 % 0.0 in
02:47 6.9 °F -1.0 °F 1028.3 in Calm   4.8 mph 57 % 0.0 in
02:52 6.9 °F -1.0 °F 1028.3 in Calm   4.8 mph 57 % 0.0 in
02:57 6.8 °F -0.9 °F 1028.3 in NW 3.2 mph 3.2 mph 58 % 0.0 in
03:02 6.9 °F -1.0 °F 1028.3 in NW 1.6 mph 3.2 mph 57 % 0.0 in
03:07 7.1 °F -0.8 °F 1028.0 in NW 1.6 mph 3.2 mph 57 % 0.0 in
03:12 7.1 °F -0.8 °F 1028.0 in NW 3.2 mph 3.2 mph 57 % 0.0 in
03:17 7.1 °F -0.8 °F 1028.0 in NW 1.6 mph 3.2 mph 57 % 0.0 in
03:22 7.2 °F -1.0 °F 1028.0 in Calm   3.2 mph 56 % 0.0 in
03:27 7.2 °F -1.0 °F 1028.0 in NW 3.2 mph 3.2 mph 56 % 0.0 in
03:32 7.1 °F -0.8 °F 1028.0 in NW 3.2 mph 3.2 mph 57 % 0.0 in
03:37 7.1 °F -0.8 °F 1028.0 in NW 3.2 mph 4.8 mph 57 % 0.0 in
03:42 7.0 °F -0.9 °F 1028.0 in NNW 3.2 mph 4.8 mph 57 % 0.0 in
03:47 7.0 °F -0.9 °F 1028.0 in NNW 3.2 mph 4.8 mph 57 % 0.0 in
03:52 6.9 °F -1.0 °F 1028.0 in NNW 1.6 mph 4.8 mph 57 % 0.0 in
03:57 6.9 °F -1.0 °F 1028.0 in NNW 1.6 mph 4.8 mph 57 % 0.0 in
04:02 6.8 °F -0.9 °F 1027.7 in NNW 1.6 mph 4.8 mph 58 % 0.0 in
04:12 6.7 °F -1.0 °F 1027.7 in NNW 1.6 mph 3.2 mph 58 % 0.0 in
04:17 6.8 °F -1.1 °F 1027.7 in NNW 1.6 mph 3.2 mph 57 % 0.0 in
04:22 6.5 °F -0.9 °F 1027.7 in Calm   3.2 mph 59 % 0.0 in
04:32 6.1 °F -1.1 °F 1027.7 in NNW 1.6 mph 3.2 mph 60 % 0.0 in
04:37 6.2 °F -1.0 °F 1027.7 in NNW 1.6 mph 1.6 mph 60 % 0.0 in
04:42 6.2 °F -1.0 °F 1027.7 in Calm   1.6 mph 60 % 0.0 in
04:47 5.9 °F -1.0 °F 1027.7 in NNW 1.6 mph 3.2 mph 61 % 0.0 in
04:52 5.8 °F -0.9 °F 1027.7 in NW 1.6 mph 3.2 mph 62 % 0.0 in
05:02 5.9 °F -1.0 °F 1027.7 in NW 3.2 mph 4.8 mph 61 % 0.0 in
05:12 5.8 °F -0.9 °F 1027.7 in NNW 1.6 mph 4.8 mph 62 % 0.0 in
05:22 5.7 °F -0.8 °F 1027.7 in Calm   4.8 mph 63 % 0.0 in
05:27 5.5 °F -1.0 °F 1027.7 in NW 3.2 mph 3.2 mph 63 % 0.0 in
05:32 5.3 °F -1.0 °F 1027.3 in NW 4.8 mph 4.8 mph 64 % 0.0 in
05:37 5.2 °F -1.1 °F 1027.7 in NW 1.6 mph 4.8 mph 64 % 0.0 in
05:42 5.1 °F -0.9 °F 1027.7 in NNW 4.8 mph 4.8 mph 65 % 0.0 in
05:47 4.9 °F -0.9 °F 1027.7 in Calm   4.8 mph 66 % 0.0 in
05:52 4.7 °F -0.9 °F 1027.7 in NNW 1.6 mph 4.8 mph 67 % 0.0 in
05:57 4.7 °F -0.9 °F 1027.7 in NNW 1.6 mph 4.8 mph 67 % 0.0 in
06:02 4.8 °F -1.0 °F 1027.3 in NNW 1.6 mph 4.8 mph 66 % 0.0 in
06:12 4.8 °F -0.8 °F 1027.3 in NW 1.6 mph 3.2 mph 67 % 0.0 in
06:17 5.1 °F -0.9 °F 1027.3 in NNW 1.6 mph 3.2 mph 65 % 0.0 in
06:22 4.8 °F -1.0 °F 1027.3 in NNW 1.6 mph 3.2 mph 66 % 0.0 in
06:32 4.4 °F -0.8 °F 1027.3 in Calm   3.2 mph 69 % 0.0 in
06:37 4.3 °F -0.9 °F 1027.3 in NNW 3.2 mph 3.2 mph 69 % 0.0 in
06:42 4.6 °F -0.8 °F 1027.3 in NNW 1.6 mph 1.6 mph 68 % 0.0 in
06:52 4.7 °F -1.1 °F 1027.7 in North 4.8 mph 4.8 mph 66 % 0.0 in
06:57 4.8 °F -1.0 °F 1027.7 in North 3.2 mph 4.8 mph 66 % 0.0 in
07:02 4.9 °F -1.1 °F 1027.7 in North 1.6 mph 4.8 mph 65 % 0.0 in
07:12 5.1 °F -0.9 °F 1027.7 in NNW 1.6 mph 4.8 mph 65 % 0.0 in
07:22 5.1 °F -0.7 °F 1027.7 in NNW 1.6 mph 3.2 mph 66 % 0.0 in
07:32 5.3 °F -0.7 °F 1027.7 in Calm   3.2 mph 65 % 0.0 in
07:42 5.7 °F -0.6 °F 1027.7 in Calm   3.2 mph 64 % 0.0 in
07:47 5.8 °F -0.3 °F 1027.7 in Calm   1.6 mph 65 % 0.0 in
07:52 5.6 °F -0.5 °F 1027.7 in Calm   1.6 mph 65 % 0.0 in
08:02 5.7 °F -0.2 °F 1027.7 in Calm   1.6 mph 66 % 0.0 in
08:12 6.3 °F 0.6 °F 1027.7 in Calm   1.6 mph 67 % 0.0 in
08:17 6.6 °F 1.1 °F 1027.7 in Calm     68 % 0.0 in
08:22 7.2 °F 2.1 °F 1027.7 in Calm     70 % 0.0 in
08:32 8.3 °F 1.9 °F 1027.7 in Calm     64 % 0.0 in
08:42 9.2 °F 1.4 °F 1028.0 in Calm   3.2 mph 58 % 0.0 in
08:47 9.8 °F 1.4 °F 1028.0 in Calm   1.6 mph 56 % 0.0 in
08:52 10.0 °F 1.1 °F 1028.0 in North 3.2 mph 3.2 mph 54 % 0.0 in
09:02 10.1 °F 1.7 °F 1028.0 in NNE 1.6 mph 4.8 mph 56 % 0.0 in
09:12 10.7 °F 2.0 °F 1028.0 in NNE 1.6 mph 4.8 mph 55 % 0.0 in
09:17 10.9 °F 1.7 °F 1028.0 in NNE 1.6 mph 8.0 mph 53 % 0.0 in
09:22 11.1 °F 1.9 °F 1028.0 in Calm   8.0 mph 53 % 0.0 in
09:32 11.8 °F 2.0 °F 1028.0 in Calm   4.8 mph 51 % 0.0 in
09:42 11.9 °F 2.1 °F 1028.0 in North 1.6 mph 4.8 mph 51 % 0.0 in
09:52 12.3 °F 3.0 °F 1028.0 in ENE 1.6 mph 9.7 mph 53 % 0.0 in
10:02 12.7 °F 3.6 °F 1028.0 in ESE 3.2 mph 9.7 mph 54 % 0.0 in
10:12 12.9 °F 3.3 °F 1027.7 in East 4.8 mph 8.0 mph 52 % 0.0 in
10:22 12.8 °F 3.5 °F 1027.7 in Calm   6.4 mph 53 % 0.0 in
10:27 13.2 °F 4.1 °F 1027.7 in ENE 4.8 mph 8.0 mph 54 % 0.0 in
10:32 13.2 °F 3.6 °F 1027.7 in ENE 3.2 mph 8.0 mph 52 % 0.0 in
10:42 13.7 °F 4.3 °F 1027.7 in ESE 3.2 mph 8.0 mph 53 % 0.0 in
10:52 14.0 °F 4.0 °F 1027.7 in ENE 8.0 mph 8.0 mph 51 % 0.0 in
11:02 14.3 °F 4.0 °F 1027.7 in ENE 9.7 mph 16.1 mph 50 % 0.0 in
11:12 14.6 °F 4.3 °F 1027.7 in ESE 1.6 mph 14.5 mph 50 % 0.0 in
11:17 14.9 °F 4.9 °F 1027.7 in ENE 4.8 mph 14.5 mph 51 % 0.0 in
11:22 15.1 °F 4.8 °F 1027.7 in NNE 8.0 mph 14.5 mph 50 % 0.0 in
11:32 15.1 °F 4.8 °F 1027.7 in ENE 3.2 mph 12.9 mph 50 % 0.0 in
11:42 15.3 °F 4.6 °F 1027.7 in ENE 8.0 mph 12.9 mph 49 % 0.0 in
11:47 15.3 °F 4.9 °F 1027.3 in East 6.4 mph 14.5 mph 50 % 0.0 in
11:52 15.3 °F 4.6 °F 1027.3 in ENE 3.2 mph 14.5 mph 49 % 0.0 in
12:02 15.7 °F 5.6 °F 1027.3 in NE 6.4 mph 14.5 mph 51 % 0.0 in
12:07 15.8 °F 4.8 °F 1027.3 in Calm   12.9 mph 48 % 0.0 in
12:12 16.1 °F 6.2 °F 1027.0 in ESE 6.4 mph 12.9 mph 52 % 0.0 in
12:17 16.0 °F 5.3 °F 1027.0 in ENE 4.8 mph 12.9 mph 49 % 0.0 in
12:22 16.0 °F 4.7 °F 1027.0 in NE 6.4 mph 12.9 mph 47 % 0.0 in
12:32 16.3 °F 5.3 °F 1027.0 in NNE 12.9 mph 17.7 mph 48 % 0.0 in
12:42 16.4 °F 5.1 °F 1027.0 in NNE 19.3 mph 19.3 mph 47 % 0.0 in
12:52 16.1 °F 5.1 °F 1027.0 in NNE 3.2 mph 17.7 mph 48 % 0.0 in
12:57 16.2 °F 4.3 °F 1027.0 in Calm   19.3 mph 45 % 0.0 in
13:02 16.5 °F 5.1 °F 1027.0 in East 4.8 mph 19.3 mph 47 % 0.0 in
13:07 16.5 °F 4.8 °F 1026.6 in NE 3.2 mph 22.5 mph 46 % 0.0 in
13:12 16.5 °F 4.5 °F 1026.6 in SSE 1.6 mph 22.5 mph 45 % 0.0 in
13:17 16.6 °F 5.2 °F 1026.6 in ENE 12.9 mph 22.5 mph 47 % 0.0 in
13:22 16.7 °F 5.9 °F 1026.6 in NNE 6.4 mph 22.5 mph 49 % 0.0 in
13:27 16.8 °F 5.1 °F 1026.6 in ENE 6.4 mph 17.7 mph 46 % 0.0 in
13:32 16.9 °F 4.9 °F 1026.3 in Calm   17.7 mph 45 % 0.0 in
13:37 17.2 °F 5.5 °F 1026.3 in East 4.8 mph 14.5 mph 46 % 0.0 in
13:42 17.4 °F 6.0 °F 1026.3 in ENE 8.0 mph 14.5 mph 47 % 0.0 in
13:47 17.2 °F 6.1 °F 1026.3 in NNE 3.2 mph 16.1 mph 48 % 0.0 in
13:52 17.3 °F 6.2 °F 1026.3 in East 4.8 mph 16.1 mph 48 % 0.0 in
13:57 17.5 °F 6.1 °F 1026.0 in NE 14.5 mph 14.5 mph 47 % 0.0 in
14:02 17.3 °F 5.3 °F 1026.0 in NE 9.7 mph 14.5 mph 45 % 0.0 in
14:12 17.1 °F 5.4 °F 1026.0 in NE 1.6 mph 20.9 mph 46 % 0.0 in
14:17 17.1 °F 5.7 °F 1026.0 in North 8.0 mph 22.5 mph 47 % 0.0 in
14:22 17.2 °F 6.1 °F 1026.0 in NE 14.5 mph 22.5 mph 48 % 0.0 in
14:27 17.2 °F 6.4 °F 1026.0 in NNW 14.5 mph 22.5 mph 49 % 0.0 in
14:32 17.4 °F 6.0 °F 1026.0 in NNE 20.9 mph 22.5 mph 47 % 0.0 in
14:37 17.2 °F 5.5 °F 1025.6 in North 20.9 mph 22.5 mph 46 % 0.0 in
14:42 17.1 °F 5.4 °F 1025.6 in NNE 4.8 mph 22.5 mph 46 % 0.0 in
14:47 17.4 °F 6.3 °F 1025.6 in North 4.8 mph 22.5 mph 48 % 0.0 in
14:57 17.4 °F 5.3 °F 1025.6 in WSW 4.8 mph 14.5 mph 45 % 0.0 in
15:02 17.6 °F 5.8 °F 1025.6 in NNE 12.9 mph 14.5 mph 46 % 0.0 in
15:12 17.3 °F 6.2 °F 1025.3 in North 12.9 mph 24.1 mph 48 % 0.0 in
15:17 17.4 °F 5.7 °F 1025.3 in WNW 4.8 mph 24.1 mph 46 % 0.0 in
15:22 17.6 °F 5.2 °F 1025.3 in NE 9.7 mph 24.1 mph 44 % 0.0 in
15:32 17.5 °F 5.4 °F 1025.3 in NNW 3.2 mph 25.7 mph 45 % 0.0 in
15:37 17.4 °F 5.3 °F 1025.3 in North 6.4 mph 24.1 mph 45 % 0.0 in
15:42 17.4 °F 6.3 °F 1024.9 in NNW 6.4 mph 24.1 mph 48 % 0.0 in
15:52 17.7 °F 5.6 °F 1024.9 in North 4.8 mph 24.1 mph 45 % 0.0 in
15:57 17.8 °F 5.4 °F 1024.9 in NNE 3.2 mph 20.9 mph 44 % 0.0 in
16:02 17.6 °F 5.8 °F 1024.9 in NE 12.9 mph 20.9 mph 46 % 0.0 in
16:12 17.7 °F 5.9 °F 1024.9 in NE 9.7 mph 22.5 mph 46 % 0.0 in
16:17 17.7 °F 6.5 °F 1024.9 in NE 17.7 mph 22.5 mph 48 % 0.0 in
16:22 17.6 °F 5.8 °F 1024.6 in NE 12.9 mph 22.5 mph 46 % 0.0 in
16:27 17.4 °F 5.7 °F 1024.6 in WNW 1.6 mph 25.7 mph 46 % 0.0 in
16:32 17.6 °F 6.2 °F 1024.6 in NE 9.7 mph 25.7 mph 47 % 0.0 in
16:37 17.4 °F 5.3 °F 1024.6 in North 4.8 mph 25.7 mph 45 % 0.0 in
16:42 17.4 °F 6.3 °F 1024.3 in North 8.0 mph 25.7 mph 48 % 0.0 in
16:47 17.2 °F 6.1 °F 1024.6 in NNE 8.0 mph 24.1 mph 48 % 0.0 in
16:52 17.3 °F 5.9 °F 1024.6 in NW 12.9 mph 24.1 mph 47 % 0.0 in
17:02 17.3 °F 6.2 °F 1024.3 in NNE 8.0 mph 24.1 mph 48 % 0.0 in
17:12 16.9 °F 6.4 °F 1024.3 in North 14.5 mph 22.5 mph 50 % 0.0 in
17:17 16.8 °F 6.0 °F 1024.3 in NNW 11.3 mph 22.5 mph 49 % 0.0 in
17:22 16.8 °F 6.3 °F 1024.3 in NNE 6.4 mph 22.5 mph 50 % 0.0 in
17:27 17.0 °F 6.2 °F 1024.3 in North 9.7 mph 19.3 mph 49 % 0.0 in
17:32 16.7 °F 5.6 °F 1024.3 in NE 8.0 mph 19.3 mph 48 % 0.0 in
17:37 16.5 °F 6.0 °F 1024.3 in NNW 9.7 mph 17.7 mph 50 % 0.0 in
17:42 16.3 °F 5.9 °F 1024.3 in West 4.8 mph 17.7 mph 50 % 0.0 in
17:47 16.3 °F 5.9 °F 1024.3 in NNE 11.3 mph 24.1 mph 50 % 0.0 in
17:52 16.3 °F 5.9 °F 1024.3 in NNE 14.5 mph 24.1 mph 50 % 0.0 in
17:57 16.2 °F 5.5 °F 1024.3 in North 9.7 mph 20.9 mph 49 % 0.0 in
18:02 16.1 °F 5.7 °F 1024.3 in NNE 14.5 mph 20.9 mph 50 % 0.0 in
18:12 15.9 °F 6.1 °F 1024.3 in NE 9.7 mph 24.1 mph 52 % 0.0 in
18:17 16.1 °F 6.0 °F 1024.3 in North 8.0 mph 29.0 mph 51 % 0.0 in
18:22 16.1 °F 5.7 °F 1024.3 in NNE 14.5 mph 29.0 mph 50 % 0.0 in
18:32 15.8 °F 5.7 °F 1024.3 in NNE 11.3 mph 24.1 mph 51 % 0.0 in
18:42 15.6 °F 5.5 °F 1024.3 in NNE 14.5 mph 25.7 mph 51 % 0.0 in
18:52 15.4 °F 5.3 °F 1024.3 in North 9.7 mph 22.5 mph 51 % 0.0 in
19:02 15.2 °F 5.4 °F 1024.3 in NE 20.9 mph 20.9 mph 52 % 0.0 in
19:07 15.2 °F 5.4 °F 1024.3 in NNE 14.5 mph 27.4 mph 52 % 0.0 in
19:12 15.2 °F 5.4 °F 1024.3 in NE 17.7 mph 27.4 mph 52 % 0.0 in
19:17 15.1 °F 5.0 °F 1024.3 in WNW 11.3 mph 24.1 mph 51 % 0.0 in
19:22 14.9 °F 5.1 °F 1024.3 in NNE 11.3 mph 24.1 mph 52 % 0.0 in
19:32 14.8 °F 5.3 °F 1024.3 in North 8.0 mph 22.5 mph 53 % 0.0 in
19:37 14.7 °F 5.2 °F 1024.3 in NE 4.8 mph 24.1 mph 53 % 0.0 in
19:42 14.6 °F 5.1 °F 1024.3 in NE 11.3 mph 24.1 mph 53 % 0.0 in
19:47 14.5 °F 5.6 °F 1024.3 in NNE 11.3 mph 24.1 mph 55 % 0.0 in
19:52 14.4 °F 5.5 °F 1024.3 in NE 11.3 mph 24.1 mph 55 % 0.0 in
19:57 14.3 °F 5.4 °F 1024.3 in ENE 6.4 mph 24.1 mph 55 % 0.0 in
20:02 14.2 °F 5.5 °F 1024.3 in NNE 6.4 mph 24.1 mph 56 % 0.0 in
20:12 13.9 °F 5.8 °F 1024.3 in North 11.3 mph 20.9 mph 58 % 0.0 in
20:17 13.8 °F 5.9 °F 1024.3 in NNE 14.5 mph 24.1 mph 59 % 0.0 in
20:22 13.5 °F 5.9 °F 1024.3 in NNE 9.7 mph 24.1 mph 60 % 0.0 in
20:32 13.2 °F 6.1 °F 1024.3 in NE 14.5 mph 24.1 mph 62 % 0.0 in
20:37 13.0 °F 5.9 °F 1024.3 in NE 6.4 mph 19.3 mph 62 % 0.0 in
20:42 12.9 °F 6.0 °F 1024.3 in NNE 12.9 mph 19.3 mph 63 % 0.0 in
20:47 12.7 °F 5.8 °F 1024.3 in NNE 11.3 mph 17.7 mph 63 % 0.0 in
20:52 12.5 °F 5.9 °F 1024.3 in NNE 4.8 mph 17.7 mph 64 % 0.0 in
21:02 12.1 °F 5.9 °F 1024.6 in North 8.0 mph 16.1 mph 66 % 0.0 in
21:07 12.1 °F 5.9 °F 1024.6 in NE 4.8 mph 14.5 mph 66 % 0.0 in
21:12 11.9 °F 6.0 °F 1024.6 in NW 4.8 mph 14.5 mph 67 % 0.0 in
21:17 11.9 °F 6.0 °F 1024.6 in NNW 6.4 mph 16.1 mph 67 % 0.0 in
21:22 11.8 °F 5.9 °F 1024.6 in NNW 3.2 mph 16.1 mph 67 % 0.0 in
21:27 11.7 °F 5.8 °F 1024.6 in NE 6.4 mph 16.1 mph 67 % 0.0 in
21:32 11.4 °F 5.7 °F 1024.6 in NNW 6.4 mph 16.1 mph 68 % 0.0 in
21:42 11.2 °F 5.7 °F 1024.6 in NNW 6.4 mph 12.9 mph 69 % 0.0 in
21:47 11.1 °F 5.8 °F 1024.6 in NNE 6.4 mph 12.9 mph 70 % 0.0 in
21:57 10.9 °F 5.8 °F 1024.9 in Calm   12.9 mph 71 % 0.0 in
22:02 10.8 °F 5.8 °F 1024.9 in NNE 3.2 mph 12.9 mph 71 % 0.0 in
22:07 10.7 °F 5.7 °F 1024.9 in North 3.2 mph 8.0 mph 71 % 0.0 in
22:17 10.6 °F 5.8 °F 1024.9 in NNW 1.6 mph 6.4 mph 72 % 0.0 in
22:22 10.5 °F 5.7 °F 1024.9 in NNW 1.6 mph 6.4 mph 72 % 0.0 in
22:37 10.1 °F 5.7 °F 1024.9 in NNE 1.6 mph 8.0 mph 74 % 0.0 in
22:42 10.1 °F 5.7 °F 1024.9 in North 3.2 mph 8.0 mph 74 % 0.0 in
22:47 10.0 °F 5.8 °F 1024.9 in Calm   9.7 mph 75 % 0.0 in
22:52 9.9 °F 5.7 °F 1025.3 in NNE 8.0 mph 9.7 mph 75 % 0.0 in
22:57 10.0 °F 5.8 °F 1025.3 in NE 1.6 mph 14.5 mph 75 % 0.0 in
23:02 9.9 °F 5.9 °F 1025.3 in NE 3.2 mph 14.5 mph 76 % 0.0 in
23:12 9.8 °F 5.8 °F 1025.3 in NE 9.7 mph 11.3 mph 76 % 0.0 in
23:17 9.9 °F 5.9 °F 1025.3 in NNE 3.2 mph 17.7 mph 76 % 0.0 in
23:22 9.8 °F 5.8 °F 1025.3 in NE 6.4 mph 17.7 mph 76 % 0.0 in
23:32 10.1 °F 6.3 °F 1025.3 in NNE 9.7 mph 17.7 mph 77 % 0.0 in
23:37 10.1 °F 6.4 °F 1025.6 in NNE 6.4 mph 17.7 mph 78 % 0.0 in
23:42 10.0 °F 6.3 °F 1025.6 in NE 9.7 mph 17.7 mph 78 % 0.0 in
23:52 9.7 °F 6.2 °F 1025.6 in NNE 4.8 mph 17.7 mph 79 % 0.0 in
23:57 9.5 °F 6.0 °F 1025.6 in NNW 3.2 mph 16.1 mph 79 % 0.0 in
Meteo18
Compliments of Weather Underground - 4 mb

Script developed by  Jim McMurry - jmcmurry@mwt.net Adapted for the template by  Wim van der Kuil - Leuven-Template.eu

You find our weather info also at:

European Weather Network

Weather Underground

Equipment we use:

Weather-station
Davis Vue

Weather-program
Meteobridge

Weather-server
Raspberry PI 2 B+

Provider
1 and 1

Davis Vue

Meteobridge

Raspberry PI 2 B+

1 and 1